sensor_id;sensor_type;location;lat;lon;timestamp;temperature;humidity
18266;DHT22;9259;48.194;16.322;2022-10-13T01:57:00;11.90;99.90
18266;DHT22;9259;48.194;16.322;2022-10-13T01:59:30;11.70;99.90
18266;DHT22;9259;48.194;16.322;2022-10-13T07:55:03;11.70;99.90
18266;DHT22;9259;48.194;16.322;2022-10-13T07:57:33;13.30;99.90
18266;DHT22;9259;48.194;16.322;2022-10-13T08:00:01;13.30;99.90
18266;DHT22;9259;48.194;16.322;2022-10-13T08:02:31;13.40;99.90
18266;DHT22;9259;48.194;16.322;2022-10-13T08:05:02;13.60;99.90
18266;DHT22;9259;48.194;16.322;2022-10-13T08:07:30;13.70;99.90
18266;DHT22;9259;48.194;16.322;2022-10-13T08:09:58;13.60;99.90
18266;DHT22;9259;48.194;16.322;2022-10-13T08:12:26;13.60;99.90
18266;DHT22;9259;48.194;16.322;2022-10-13T08:14:55;13.70;99.90
18266;DHT22;9259;48.194;16.322;2022-10-13T08:17:23;13.50;99.90
18266;DHT22;9259;48.194;16.322;2022-10-13T08:19:50;13.50;99.90
18266;DHT22;9259;48.194;16.322;2022-10-13T08:22:18;13.20;99.90
18266;DHT22;9259;48.194;16.322;2022-10-13T08:24:46;13.30;99.90
18266;DHT22;9259;48.194;16.322;2022-10-13T08:27:18;13.50;99.90
18266;DHT22;9259;48.194;16.322;2022-10-13T08:29:47;13.60;99.90
18266;DHT22;9259;48.194;16.322;2022-10-13T08:32:16;13.60;99.90
18266;DHT22;9259;48.194;16.322;2022-10-13T08:34:46;13.70;99.90
18266;DHT22;9259;48.194;16.322;2022-10-13T08:37:14;13.90;99.90
18266;DHT22;9259;48.194;16.322;2022-10-13T08:39:43;13.90;99.90
18266;DHT22;9259;48.194;16.322;2022-10-13T08:42:14;13.90;99.90
18266;DHT22;9259;48.194;16.322;2022-10-13T08:44:47;13.90;99.90
18266;DHT22;9259;48.194;16.322;2022-10-13T08:47:27;13.90;99.90
18266;DHT22;9259;48.194;16.322;2022-10-13T08:50:02;14.00;99.90
18266;DHT22;9259;48.194;16.322;2022-10-13T08:52:44;14.10;99.90
18266;DHT22;9259;48.194;16.322;2022-10-13T08:55:22;13.90;99.90
18266;DHT22;9259;48.194;16.322;2022-10-13T08:57:51;13.90;99.90
18266;DHT22;9259;48.194;16.322;2022-10-13T09:00:20;13.90;99.90
18266;DHT22;9259;48.194;16.322;2022-10-13T09:02:50;14.00;99.90
18266;DHT22;9259;48.194;16.322;2022-10-13T09:41:15;14.00;99.90
18266;DHT22;9259;48.194;16.322;2022-10-13T10:17:05;15.10;99.90
18266;DHT22;9259;48.194;16.322;2022-10-13T10:19:50;14.70;99.90
18266;DHT22;9259;48.194;16.322;2022-10-13T10:22:33;14.60;99.90
18266;DHT22;9259;48.194;16.322;2022-10-13T10:25:18;14.60;99.90
18266;DHT22;9259;48.194;16.322;2022-10-13T12:19:14;14.60;99.90
18266;DHT22;9259;48.194;16.322;2022-10-13T12:21:50;17.70;99.90
18266;DHT22;9259;48.194;16.322;2022-10-13T12:24:21;17.40;99.90
18266;DHT22;9259;48.194;16.322;2022-10-13T12:26:52;17.20;99.90
18266;DHT22;9259;48.194;16.322;2022-10-13T12:29:23;17.20;99.90
18266;DHT22;9259;48.194;16.322;2022-10-13T12:31:53;17.10;99.90
18266;DHT22;9259;48.194;16.322;2022-10-13T12:34:25;17.20;99.90
18266;DHT22;9259;48.194;16.322;2022-10-13T12:36:57;17.40;99.90
18266;DHT22;9259;48.194;16.322;2022-10-13T12:39:27;17.50;99.90
18266;DHT22;9259;48.194;16.322;2022-10-13T12:41:59;17.60;99.90
18266;DHT22;9259;48.194;16.322;2022-10-13T12:44:30;17.20;99.90
18266;DHT22;9259;48.194;16.322;2022-10-13T12:46:59;17.10;99.90
18266;DHT22;9259;48.194;16.322;2022-10-13T12:49:31;16.70;99.90
18266;DHT22;9259;48.194;16.322;2022-10-13T12:52:05;16.70;99.90
18266;DHT22;9259;48.194;16.322;2022-10-13T12:54:35;16.60;99.90
18266;DHT22;9259;48.194;16.322;2022-10-13T12:57:15;16.50;99.90
18266;DHT22;9259;48.194;16.322;2022-10-13T12:59:45;16.50;99.90
18266;DHT22;9259;48.194;16.322;2022-10-13T13:02:19;16.10;99.90
18266;DHT22;9259;48.194;16.322;2022-10-13T13:04:48;16.30;99.90
18266;DHT22;9259;48.194;16.322;2022-10-13T13:07:30;16.40;99.90
18266;DHT22;9259;48.194;16.322;2022-10-13T13:10:13;16.40;99.90
18266;DHT22;9259;48.194;16.322;2022-10-13T13:12:45;16.50;99.90
18266;DHT22;9259;48.194;16.322;2022-10-13T13:15:31;16.60;99.90
18266;DHT22;9259;48.194;16.322;2022-10-13T13:18:28;16.50;99.90
18266;DHT22;9259;48.194;16.322;2022-10-13T13:21:01;16.40;99.90
18266;DHT22;9259;48.194;16.322;2022-10-13T13:23:31;16.40;99.90
18266;DHT22;9259;48.194;16.322;2022-10-13T13:26:10;16.40;99.90
18266;DHT22;9259;48.194;16.322;2022-10-13T13:28:44;16.40;99.90
18266;DHT22;9259;48.194;16.322;2022-10-13T13:31:13;16.40;99.90
18266;DHT22;9259;48.194;16.322;2022-10-13T13:33:41;16.40;99.90
18266;DHT22;9259;48.194;16.322;2022-10-13T13:36:13;16.40;99.90
18266;DHT22;9259;48.194;16.322;2022-10-13T13:38:42;16.20;99.90
18266;DHT22;9259;48.194;16.322;2022-10-13T13:41:11;16.10;99.90
18266;DHT22;9259;48.194;16.322;2022-10-13T13:43:39;15.90;99.90
18266;DHT22;9259;48.194;16.322;2022-10-13T13:46:14;16.00;99.90
18266;DHT22;9259;48.194;16.322;2022-10-13T13:48:43;16.20;99.90
18266;DHT22;9259;48.194;16.322;2022-10-13T13:51:11;16.10;99.90
18266;DHT22;9259;48.194;16.322;2022-10-13T13:53:39;16.20;99.90
18266;DHT22;9259;48.194;16.322;2022-10-13T13:56:10;16.10;99.90
18266;DHT22;9259;48.194;16.322;2022-10-13T13:58:38;15.80;99.90
18266;DHT22;9259;48.194;16.322;2022-10-13T14:01:06;15.90;99.90
18266;DHT22;9259;48.194;16.322;2022-10-13T14:03:37;15.90;99.90
18266;DHT22;9259;48.194;16.322;2022-10-13T14:06:05;16.10;99.90
18266;DHT22;9259;48.194;16.322;2022-10-13T14:08:35;16.30;99.90
18266;DHT22;9259;48.194;16.322;2022-10-13T14:11:07;16.30;99.90
18266;DHT22;9259;48.194;16.322;2022-10-13T14:13:35;16.30;99.90
18266;DHT22;9259;48.194;16.322;2022-10-13T14:16:03;16.10;99.90
18266;DHT22;9259;48.194;16.322;2022-10-13T14:18:32;16.10;99.90
18266;DHT22;9259;48.194;16.322;2022-10-13T14:21:04;16.00;99.90
18266;DHT22;9259;48.194;16.322;2022-10-13T14:23:33;15.80;99.90
18266;DHT22;9259;48.194;16.322;2022-10-13T14:26:05;15.80;99.90
18266;DHT22;9259;48.194;16.322;2022-10-13T14:28:34;16.00;99.90
18266;DHT22;9259;48.194;16.322;2022-10-13T14:31:04;16.10;99.90
18266;DHT22;9259;48.194;16.322;2022-10-13T14:33:33;16.20;99.90
18266;DHT22;9259;48.194;16.322;2022-10-13T14:36:04;16.40;99.90
18266;DHT22;9259;48.194;16.322;2022-10-13T14:38:33;16.40;99.90
18266;DHT22;9259;48.194;16.322;2022-10-13T14:41:03;16.40;99.90
18266;DHT22;9259;48.194;16.322;2022-10-13T14:43:32;16.40;99.90
18266;DHT22;9259;48.194;16.322;2022-10-13T14:46:00;16.40;99.90
18266;DHT22;9259;48.194;16.322;2022-10-13T14:48:29;16.40;99.90
18266;DHT22;9259;48.194;16.322;2022-10-13T14:50:58;16.40;99.90
18266;DHT22;9259;48.194;16.322;2022-10-13T14:53:27;16.20;99.90
18266;DHT22;9259;48.194;16.322;2022-10-13T14:55:55;16.10;99.90
18266;DHT22;9259;48.194;16.322;2022-10-13T14:58:23;16.10;99.90
18266;DHT22;9259;48.194;16.322;2022-10-13T15:00:51;16.10;99.90
18266;DHT22;9259;48.194;16.322;2022-10-13T15:03:20;16.00;99.90
18266;DHT22;9259;48.194;16.322;2022-10-13T15:05:49;16.00;99.90
18266;DHT22;9259;48.194;16.322;2022-10-13T15:08:16;16.00;99.90
18266;DHT22;9259;48.194;16.322;2022-10-13T15:30:47;15.90;99.90
18266;DHT22;9259;48.194;16.322;2022-10-13T15:38:13;15.20;99.90
18266;DHT22;9259;48.194;16.322;2022-10-13T15:40:41;15.10;99.90
18266;DHT22;9259;48.194;16.322;2022-10-13T15:43:11;15.10;99.90
18266;DHT22;9259;48.194;16.322;2022-10-13T15:45:39;15.10;99.90
18266;DHT22;9259;48.194;16.322;2022-10-13T15:48:09;14.90;99.90
18266;DHT22;9259;48.194;16.322;2022-10-13T16:52:35;14.90;99.90
18266;DHT22;9259;48.194;16.322;2022-10-13T16:55:05;13.80;99.90
18266;DHT22;9259;48.194;16.322;2022-10-13T16:57:34;13.80;99.90
